Timeline UpdatesTrip UpdatesNews PostsPvt PostsTravel TipsAdmin PostsConv PostsFollowed PostsChat RequestsBlog PostsPNR Posts

Disclaimer
Search
 
 
Mon Sep 22, 2014 11:44:28 ISTHomeTrainsΣChainsAtlasPNRForumGalleryNewsFAQTripsMembersLoginFeedback
Latest...
Cancelled from 17/6/14-24/6/14 #1132763***Popularly known as "BDM" amongst the local people
Thu Jun 12, 2014 (08:41PM)
⇐ Return Journey: Train# 53362

53361/BarkaKana Varanasi Passenger (UnReserved)

Time-Table HAS CHANGED.
Sep 04 (9:08AM)
Change Departure Station:
Change Arrival Station:
Post a Train Travel TipPost a Train Travel Tip **new
Post a Comment/Question/Picture/VideoPost a Comment/Question/Picture/Video
Pantry/Catering
✕ NO Pantry Car
✕ NO Catering
RSA - Rake Sharing
It has the RSA with 53359/53360 Barkakana-NSBC Gomoh Passenger.
Rake/Coach Composition
LOCO-SLR-GEN-GEN-GEN-GEN-GEN-GEN-SLR.
Loco
WAM-4 (MGS)
News    PNR    Forum    Time-Table    Availability    Fare Chart    Map    Arr/Dep History    Trips    Gallery    ΣChains    X/O    Timeline    
Travel Time: 10h 5m    46 halts    Distance: 354 km    Avg Speed: 35 km/hr
Type: Passenger
Zone: ECR/East Central
Departs @ 03:30 (Avg 42m late)
Platform# ???
SMTWTFS
Barkakana Junction/BRKA 
Arrives @ 13:35 (Avg 1h 6m late)
Platform# ???
SMTWTFS
Khurmabad Road/KVD 

46 halts. 51 intermediate Stations between Barkakana Junction and Khurmabad Road

Show ALL intermediate Stations  Show Old Time-Table

#CodeStation NameX/OArrivesAvgDepartsAvgHaltPFDay#KmSpeedElevZoneAddress
1BRKABarkakana Junction (4)»  -03:30+42--10.087341mECR0653-255225, Jharkhand
2BHKDBhurkunda (1)  03:37+1:0203:39+1:072m1110.249363mECRRamgarh, Jharkhand
3PTRUPatratu (3)  03:49+1:0903:51+1:152m--118.454373mECRDistt: Ramgarh, Jharkhand
4TKSTokisud  03:59+1:1504:01+1:152m--125.657373mECRKhakhra, Jharkhand
5HNDRHendegirX  04:10+1:1404:12+1:142m--134.152397mECRBadam Rd, Jharkhand
6RAYRay (2)  04:25+1:2004:27+1:212m--145.591447mECRRanchi, Jharkhand
7KLREKhalari (3)  04:33+1:2404:35+1:242m--154.647459mECRKhelari, Jharkhand
8MGMEMcCluskieGanj (3)X  04:43+1:2504:45+1:252m--160.839476mECRPipra Toli, Jharkhand
9MMLNMahuamilanX  04:59+1:3305:01+1:342m--170.086486mECRNational Highway 75, Jharkhand
10TORITori (2)  05:10+1:3705:15+1:385m2182.872515mECRChandwa, Jharkhand
11CTQChetarX  05:23+1:4105:24+1:421m--192.462479mECRNational Highway 75, Jharkhand
12RCGTRichughutu  05:32+1:4305:33+1:441m--1100.763450mECRNational Highway 75, Jharkhand
13DEMUDemu  05:41+1:4405:42+1:451m--1109.041414mECRNational Highway 75, Jharkhand
14LTHRLatehar (2)  05:51+1:4605:53+1:522m--1115.233381mECRLatehar, Jharkhand
15BFQBendiX  06:04+1:5006:05+1:501m--1121.267370mECRNational Highway 75, Jharkhand
16KMNDKumendiX  06:12+1:5006:13+1:561m--1129.058353mECRMatnagj, Jharkhand
17HHGHehegara Halt  06:23+1:5806:24+2:001m--1138.664332mECRMatnagj, Jharkhand
18CPDRChhipadohar (2)  06:32+2:0306:33+2:121m--1147.222339mECRChipadohar bypass, Jharkhand
19BRWDBarwadih Junction (3)  06:55+2:0207:00+2:075m--1155.413295mECRDist. Latehar, Jharkhand
20MAZMangra  07:34+1:4407:35+1:441m--1163.038257mECRMangra, Jharkhand
21KCKIKechki  07:43+1:4407:44+1:441m--1168.152250mECRKechki, Jharkhand
22CNFChianki  07:53+1:4307:54+1:431m--1175.938237mECRNational Highway 75, Jharkhand
23DTODaltonGanj (3)  08:05+1:2108:10+1:215m11182.943234mECR230812, Jharkhand
24KFTKajri (2)  08:19+1:3708:20+1:371m--1189.397216mECRBairia, Jharkhand
25RHRRajhura (2)  08:27+1:3708:28+1:391m--1200.621205mECRDist. Palamu, Jharkhand
26TRZTolra (2)X  08:56+1:2608:58+1:262m--1210.411192mECRPalamu, Jharkhand
27GHDGarhwa Road Junction (3)  09:30+5509:40+5110m--1216.261188mECRPalamu, Jharkhand
28SQSSigsigi (2)  09:45 09:46+5609:47+562 1m--1222.338181mECRJharkhand, Jharkhand
29KRTAKarkata  09:53 09:54+5509:55+562 1m--1226.838174mECRPalamu, Jharkhand
30URDUntare Road (2)  10:03 10:04+5410:05+552 1m--1232.536170mECRPalamu, Jharkhand
31SZFSatbahini  10:13 10:14+5410:15+552 1m--1237.939161mECRJharkhand, Jharkhand
32MDJMuhammadGanj (2)  10:24 10:25+5410:26+552 1m--1244.345160mECRJharkhand, Jharkhand
33KVQKosiara  10:34 10:35+5610:36+562 1m--1251.131156mECRJharkhand, Jharkhand
34HDNHaidar Nagar (2)  10:45 10:46+5510:47+582 1m--1256.342145mECRPalamu, Jharkhand
35JPLJapla (2)  10:56 10:57+5510:58+1:002 1m--1263.338149mECRPalamu, Jharkhand
36KYFKajrat Nawadih  11:09 11:10+5811:11+1:022 1m--1270.955143mECRTiwari Vigha Rd, Jharkhand
37NBGNabinagar Road (2)  11:19 11:20+1:0211:21+1:022 1m--1279.095140mECRBihar, Bihar
38BSYABarkisalalya new halt!!XO  11:31-11:32-1m--1294.911123mECRTilauthu, Bihar
39ANHAnkorah Akorha (3)  11:40 11:41+1:0111:42+1:012 1m--1296.654121mECRAurangabad, Bihar
40BCJBagahabishunpur (3)  11:50 11:51+1:0011:52+1:012 1m--1304.818115mECRBagahabishunpur, Bihar
41SEBSon Nagar Junction (4)  12:18 12:19+5212:20+1:012 1m--1312.729110mECRBarun, Bihar
42DOSDehri On Sone (6)  12:32+4912:37+495m--1318.454114mECRRohtas(06184-253154), Bihar
43PHEPahaleja Halt  12:41 12:42+1:0812:43+1:082 1m--1322.944112mECRPahaleja, Bihar
44KWDKarwandiaX  12:51 12:52+1:0712:53+1:082 1m--1329.628113mECRKarwandiya, Bihar
45SSMSasaram Junction (4)  13:06 13:07+5413:08+572 1m--1336.159111mECR06184-222051, Bihar
46KMGEKumahuX  13:15 13:16+1:0713:17+1:082 1m--1344.038101mECRKamahu, Bihar
47SSGShiu Sagar Road  13:25 13:26+1:0113:27+1:032 1m--1349.63699mECRShiu Sagar Rd, Bihar
48KVDKhurmabad Road•  13:34 13:35+1:0613:36+1:082 1m--1354.45993mECRKhurmabad, Bihar
49KTQKudra (2)  13:42 13:43+1:0813:44+1:172 1m--1361.36092mECRKudra, Bihar
50PSEPusauli  13:52 13:53+1:1813:54+1:212 1m--1370.35286mECRDistt: Rohtas, Bihar
51MTGEMuthani  14:02 14:03+1:2314:04+1:272 1m--1378.24783mECRNational Highway 2, Bihar
52BBUBhabua Road (4)  14:10 14:11+1:2214:12+1:292 1m--1383.76080mECR06187-222222, Bihar
53DGODurgauti  14:20 14:21+1:2714:22+1:302 1m--1392.64676mECRDistt Kaimur, Bihar
54DCXDhanaichha  14:28 14:29+1:3814:30+1:382 1m--1398.04175mECRNational Highway 2, Bihar
55KMSKaramnasa  14:38 14:39+1:3714:40+1:382 1m--1404.24578mECRNational Highway 2, Uttar Pradesh
56SYJSaidraja  14:50 14:51+1:3714:52+1:392 1m--1412.43480mECRSaiyedraja, Uttar Pradesh
57CDMRChandauli Majhwar  15:06 15:07+1:3215:08+1:392 1m--1420.83280mECRNational Highway 2, Uttar Pradesh
58GAQGanj Khawaja  15:23 15:24+1:2915:25+1:332 1m--1429.4879mECRChandauli Mjhwr, Uttar Pradesh
59MGSMughal Sarai Junction (8)X  16:30+2616:40+3210m51438.21683mECRMughalsarai 232101, Uttar Pradesh
60VYNVyasnagar  17:02+1:3117:03+1:401m--1443.92281mNRNational Highway 2, Uttar Pradesh
61KEIKashi (3)  17:17+1:3717:18+2:001m--1449.21585mNRVaranasi, Uttar Pradesh
62BSBVaranasi Junction (9)  17:50 17:40+30---1454.5-82mNRVaranasi 221002, Uttar Pradesh
Scroll to Top
Scroll to Bottom